sensor_id;sensor_type;location;lat;lon;timestamp;P1;durP1;ratioP1;P2;durP2;ratioP2
68224;SDS011;57497;43.322;21.932;2023-02-15T00:00:35;24.6;;;13.8;;
68224;SDS011;57497;43.322;21.932;2023-02-15T00:05:34;28.8;;;13.4;;
68224;SDS011;57497;43.322;21.932;2023-02-15T00:10:33;21.2;;;13.3;;
68224;SDS011;57497;43.322;21.932;2023-02-15T00:15:33;25.6;;;14.2;;
68224;SDS011;57497;43.322;21.932;2023-02-15T00:20:32;23.7;;;13.1;;
68224;SDS011;57497;43.322;21.932;2023-02-15T00:25:33;25.7;;;13.8;;
68224;SDS011;57497;43.322;21.932;2023-02-15T00:30:33;23.9;;;13.3;;
68224;SDS011;57497;43.322;21.932;2023-02-15T00:35:33;24.5;;;14.3;;
68224;SDS011;57497;43.322;21.932;2023-02-15T00:40:33;30.2;;;15.2;;
68224;SDS011;57497;43.322;21.932;2023-02-15T00:45:32;26.8;;;14.4;;
68224;SDS011;57497;43.322;21.932;2023-02-15T00:50:33;24.4;;;15;;
68224;SDS011;57497;43.322;21.932;2023-02-15T00:55:33;31.9;;;15.1;;
68224;SDS011;57497;43.322;21.932;2023-02-15T01:00:33;24.4;;;15.2;;
68224;SDS011;57497;43.322;21.932;2023-02-15T01:05:33;23.7;;;15.2;;
68224;SDS011;57497;43.322;21.932;2023-02-15T01:10:34;29.1;;;16.4;;
68224;SDS011;57497;43.322;21.932;2023-02-15T01:15:33;36.6;;;20.2;;
68224;SDS011;57497;43.322;21.932;2023-02-15T01:20:34;32.8;;;16.2;;
68224;SDS011;57497;43.322;21.932;2023-02-15T01:25:33;32.6;;;16.5;;
68224;SDS011;57497;43.322;21.932;2023-02-15T01:30:33;36.6;;;21;;
68224;SDS011;57497;43.322;21.932;2023-02-15T01:35:33;28.4;;;16.1;;
68224;SDS011;57497;43.322;21.932;2023-02-15T01:40:33;32;;;17.6;;
68224;SDS011;57497;43.322;21.932;2023-02-15T01:45:33;23.5;;;15.1;;
68224;SDS011;57497;43.322;21.932;2023-02-15T01:50:33;29.8;;;18.2;;
68224;SDS011;57497;43.322;21.932;2023-02-15T01:55:33;32.5;;;17.4;;
68224;SDS011;57497;43.322;21.932;2023-02-15T02:00:34;24.9;;;15.6;;
68224;SDS011;57497;43.322;21.932;2023-02-15T02:05:32;27.4;;;16;;
68224;SDS011;57497;43.322;21.932;2023-02-15T02:10:33;27.3;;;15.3;;
68224;SDS011;57497;43.322;21.932;2023-02-15T02:15:43;32.8;;;16.9;;
68224;SDS011;57497;43.322;21.932;2023-02-15T02:20:40;33.1;;;20.8;;
68224;SDS011;57497;43.322;21.932;2023-02-15T02:25:39;24.5;;;16.8;;
68224;SDS011;57497;43.322;21.932;2023-02-15T02:30:46;30.1;;;16;;
68224;SDS011;57497;43.322;21.932;2023-02-15T02:35:33;26.6;;;18;;
68224;SDS011;57497;43.322;21.932;2023-02-15T02:40:41;22.5;;;16.2;;
68224;SDS011;57497;43.322;21.932;2023-02-15T02:45:35;27.7;;;17.5;;
68224;SDS011;57497;43.322;21.932;2023-02-15T02:50:33;27;;;16;;
68224;SDS011;57497;43.322;21.932;2023-02-15T02:55:34;26.6;;;15.9;;
68224;SDS011;57497;43.322;21.932;2023-02-15T03:00:35;27.6;;;18.6;;
68224;SDS011;57497;43.322;21.932;2023-02-15T03:05:33;26.4;;;16.8;;
68224;SDS011;57497;43.322;21.932;2023-02-15T03:10:33;40.5;;;20.2;;
68224;SDS011;57497;43.322;21.932;2023-02-15T03:15:33;28.6;;;15.3;;
68224;SDS011;57497;43.322;21.932;2023-02-15T03:20:33;31.8;;;17.4;;
68224;SDS011;57497;43.322;21.932;2023-02-15T03:25:33;32.7;;;20.8;;
68224;SDS011;57497;43.322;21.932;2023-02-15T03:30:33;14.6;;;8.9;;
68224;SDS011;57497;43.322;21.932;2023-02-15T03:35:33;35;;;19.5;;
68224;SDS011;57497;43.322;21.932;2023-02-15T03:40:33;30;;;15.1;;
68224;SDS011;57497;43.322;21.932;2023-02-15T03:45:32;32.7;;;18.3;;
68224;SDS011;57497;43.322;21.932;2023-02-15T03:50:33;46;;;21.7;;
68224;SDS011;57497;43.322;21.932;2023-02-15T03:55:33;38.8;;;18.6;;
68224;SDS011;57497;43.322;21.932;2023-02-15T04:00:34;35.1;;;18.6;;
68224;SDS011;57497;43.322;21.932;2023-02-15T04:05:33;32.9;;;20.3;;
68224;SDS011;57497;43.322;21.932;2023-02-15T04:10:32;35.9;;;20.2;;
68224;SDS011;57497;43.322;21.932;2023-02-15T04:15:33;38.8;;;22.1;;
68224;SDS011;57497;43.322;21.932;2023-02-15T04:20:33;35;;;19.4;;
68224;SDS011;57497;43.322;21.932;2023-02-15T04:25:33;33.1;;;18.6;;
68224;SDS011;57497;43.322;21.932;2023-02-15T04:30:32;41.3;;;22;;
68224;SDS011;57497;43.322;21.932;2023-02-15T04:35:33;39.2;;;19.3;;
68224;SDS011;57497;43.322;21.932;2023-02-15T04:40:33;34.2;;;20.6;;
68224;SDS011;57497;43.322;21.932;2023-02-15T04:45:32;29.6;;;20.8;;
68224;SDS011;57497;43.322;21.932;2023-02-15T04:50:33;35.1;;;20;;
68224;SDS011;57497;43.322;21.932;2023-02-15T04:55:33;33.2;;;20.1;;
68224;SDS011;57497;43.322;21.932;2023-02-15T05:00:33;34.2;;;19.6;;
68224;SDS011;57497;43.322;21.932;2023-02-15T05:05:32;35.8;;;22;;
68224;SDS011;57497;43.322;21.932;2023-02-15T05:10:33;32.8;;;23.5;;
68224;SDS011;57497;43.322;21.932;2023-02-15T05:15:33;34.9;;;21.4;;
68224;SDS011;57497;43.322;21.932;2023-02-15T05:20:33;39.8;;;22.2;;
68224;SDS011;57497;43.322;21.932;2023-02-15T05:25:33;24.5;;;15.9;;
68224;SDS011;57497;43.322;21.932;2023-02-15T05:30:33;38.3;;;21.4;;
68224;SDS011;57497;43.322;21.932;2023-02-15T05:35:33;52.6;;;21.4;;
68224;SDS011;57497;43.322;21.932;2023-02-15T05:40:33;44.5;;;21;;
68224;SDS011;57497;43.322;21.932;2023-02-15T05:45:32;45.3;;;23.8;;
68224;SDS011;57497;43.322;21.932;2023-02-15T05:50:33;49.9;;;23.9;;
68224;SDS011;57497;43.322;21.932;2023-02-15T05:55:32;40.7;;;24.2;;
68224;SDS011;57497;43.322;21.932;2023-02-15T06:00:34;41.5;;;21;;
68224;SDS011;57497;43.322;21.932;2023-02-15T06:05:33;43.2;;;25.1;;
68224;SDS011;57497;43.322;21.932;2023-02-15T06:10:33;44.4;;;22.2;;
68224;SDS011;57497;43.322;21.932;2023-02-15T06:15:33;41.6;;;24.2;;
68224;SDS011;57497;43.322;21.932;2023-02-15T06:20:33;36.8;;;23.8;;
68224;SDS011;57497;43.322;21.932;2023-02-15T06:25:33;43.4;;;21.7;;
68224;SDS011;57497;43.322;21.932;2023-02-15T06:30:33;45.6;;;25;;
68224;SDS011;57497;43.322;21.932;2023-02-15T06:35:33;41.4;;;22.4;;
68224;SDS011;57497;43.322;21.932;2023-02-15T06:40:33;40.3;;;21.9;;
68224;SDS011;57497;43.322;21.932;2023-02-15T06:45:33;44;;;24.7;;
68224;SDS011;57497;43.322;21.932;2023-02-15T06:50:32;42.7;;;25.9;;
68224;SDS011;57497;43.322;21.932;2023-02-15T06:55:33;57.9;;;31.1;;
68224;SDS011;57497;43.322;21.932;2023-02-15T07:00:34;41.4;;;24.8;;
68224;SDS011;57497;43.322;21.932;2023-02-15T07:05:34;40.4;;;25.7;;
68224;SDS011;57497;43.322;21.932;2023-02-15T07:10:32;45.4;;;24.8;;
68224;SDS011;57497;43.322;21.932;2023-02-15T07:15:33;38.4;;;23.8;;
68224;SDS011;57497;43.322;21.932;2023-02-15T07:20:33;42.5;;;20.9;;
68224;SDS011;57497;43.322;21.932;2023-02-15T07:25:32;38.5;;;22;;
68224;SDS011;57497;43.322;21.932;2023-02-15T07:30:33;39.1;;;23.4;;
68224;SDS011;57497;43.322;21.932;2023-02-15T07:35:33;33.9;;;19.5;;
68224;SDS011;57497;43.322;21.932;2023-02-15T07:40:33;35.9;;;19.8;;
68224;SDS011;57497;43.322;21.932;2023-02-15T07:45:33;30.8;;;21.6;;
68224;SDS011;57497;43.322;21.932;2023-02-15T07:50:33;31.1;;;18.6;;
68224;SDS011;57497;43.322;21.932;2023-02-15T07:55:33;40.5;;;23.2;;
68224;SDS011;57497;43.322;21.932;2023-02-15T08:00:34;23.1;;;12.5;;
68224;SDS011;57497;43.322;21.932;2023-02-15T08:05:32;29.8;;;19;;
68224;SDS011;57497;43.322;21.932;2023-02-15T08:10:33;22.8;;;14.5;;
68224;SDS011;57497;43.322;21.932;2023-02-15T08:15:33;20.7;;;13;;
68224;SDS011;57497;43.322;21.932;2023-02-15T08:20:32;43.1;;;22.4;;
68224;SDS011;57497;43.322;21.932;2023-02-15T08:25:33;30.5;;;19.6;;
68224;SDS011;57497;43.322;21.932;2023-02-15T08:30:33;31.2;;;17.4;;
68224;SDS011;57497;43.322;21.932;2023-02-15T08:35:33;27.4;;;18.9;;
68224;SDS011;57497;43.322;21.932;2023-02-15T08:40:33;37.2;;;23.5;;
68224;SDS011;57497;43.322;21.932;2023-02-15T08:45:33;36.7;;;21.6;;
68224;SDS011;57497;43.322;21.932;2023-02-15T08:50:32;25.6;;;14.7;;
68224;SDS011;57497;43.322;21.932;2023-02-15T08:55:33;32.9;;;18.3;;
68224;SDS011;57497;43.322;21.932;2023-02-15T09:00:34;34.4;;;17.4;;
68224;SDS011;57497;43.322;21.932;2023-02-15T09:05:32;17.8;;;12.6;;
68224;SDS011;57497;43.322;21.932;2023-02-15T09:10:33;20.3;;;12.1;;
68224;SDS011;57497;43.322;21.932;2023-02-15T09:15:33;22;;;13.7;;
68224;SDS011;57497;43.322;21.932;2023-02-15T09:20:34;22.8;;;14.2;;
68224;SDS011;57497;43.322;21.932;2023-02-15T09:25:33;29.6;;;20.6;;
68224;SDS011;57497;43.322;21.932;2023-02-15T09:30:33;24.7;;;15.6;;
68224;SDS011;57497;43.322;21.932;2023-02-15T09:35:32;14.9;;;12.6;;
68224;SDS011;57497;43.322;21.932;2023-02-15T09:40:33;34.8;;;18.7;;
68224;SDS011;57497;43.322;21.932;2023-02-15T09:45:38;25.9;;;14.8;;
68224;SDS011;57497;43.322;21.932;2023-02-15T09:50:34;27.2;;;14.3;;
68224;SDS011;57497;43.322;21.932;2023-02-15T09:55:36;16.3;;;10.3;;
68224;SDS011;57497;43.322;21.932;2023-02-15T10:00:36;19.7;;;13.6;;
68224;SDS011;57497;43.322;21.932;2023-02-15T10:05:36;31.7;;;17.1;;
68224;SDS011;57497;43.322;21.932;2023-02-15T10:10:34;26.2;;;14.1;;
68224;SDS011;57497;43.322;21.932;2023-02-15T10:15:37;26.6;;;17.4;;
68224;SDS011;57497;43.322;21.932;2023-02-15T10:20:33;29.5;;;18.5;;
68224;SDS011;57497;43.322;21.932;2023-02-15T10:25:35;30.2;;;16.6;;
68224;SDS011;57497;43.322;21.932;2023-02-15T10:30:36;32.2;;;19.4;;
68224;SDS011;57497;43.322;21.932;2023-02-15T10:35:34;24.9;;;15.9;;
68224;SDS011;57497;43.322;21.932;2023-02-15T10:40:34;23.1;;;15.1;;
68224;SDS011;57497;43.322;21.932;2023-02-15T10:45:35;20.1;;;13.2;;
68224;SDS011;57497;43.322;21.932;2023-02-15T10:50:36;31.5;;;19.6;;
68224;SDS011;57497;43.322;21.932;2023-02-15T10:55:38;18.4;;;10.7;;
68224;SDS011;57497;43.322;21.932;2023-02-15T11:00:35;24.6;;;15.4;;
68224;SDS011;57497;43.322;21.932;2023-02-15T11:05:35;28.2;;;18.2;;
68224;SDS011;57497;43.322;21.932;2023-02-15T11:10:34;22.6;;;15.4;;
68224;SDS011;57497;43.322;21.932;2023-02-15T11:15:33;24.9;;;11.6;;
68224;SDS011;57497;43.322;21.932;2023-02-15T11:20:35;30.5;;;12.9;;
68224;SDS011;57497;43.322;21.932;2023-02-15T11:25:33;22.5;;;15.9;;
68224;SDS011;57497;43.322;21.932;2023-02-15T11:30:37;20.2;;;12.7;;
68224;SDS011;57497;43.322;21.932;2023-02-15T11:35:33;17.3;;;10;;
68224;SDS011;57497;43.322;21.932;2023-02-15T11:40:34;28.2;;;16.7;;
68224;SDS011;57497;43.322;21.932;2023-02-15T11:45:33;15.6;;;10.9;;
68224;SDS011;57497;43.322;21.932;2023-02-15T11:50:32;24.1;;;13.6;;
68224;SDS011;57497;43.322;21.932;2023-02-15T11:55:33;14.4;;;11;;
68224;SDS011;57497;43.322;21.932;2023-02-15T12:00:35;21.9;;;13.8;;
68224;SDS011;57497;43.322;21.932;2023-02-15T12:05:33;18.3;;;14.2;;
68224;SDS011;57497;43.322;21.932;2023-02-15T12:10:33;29.3;;;15.9;;
68224;SDS011;57497;43.322;21.932;2023-02-15T12:15:40;18.4;;;12.7;;
68224;SDS011;57497;43.322;21.932;2023-02-15T12:20:33;24.7;;;15.4;;
68224;SDS011;57497;43.322;21.932;2023-02-15T12:25:35;26.9;;;15.5;;
68224;SDS011;57497;43.322;21.932;2023-02-15T12:30:34;20.8;;;13.1;;
68224;SDS011;57497;43.322;21.932;2023-02-15T12:35:34;16.7;;;13.7;;
68224;SDS011;57497;43.322;21.932;2023-02-15T12:40:33;20.2;;;15.7;;
68224;SDS011;57497;43.322;21.932;2023-02-15T12:45:33;32.4;;;17.9;;
68224;SDS011;57497;43.322;21.932;2023-02-15T12:50:33;29.6;;;17.9;;
68224;SDS011;57497;43.322;21.932;2023-02-15T12:55:33;20.5;;;15.3;;
68224;SDS011;57497;43.322;21.932;2023-02-15T13:00:34;27.9;;;20.3;;
68224;SDS011;57497;43.322;21.932;2023-02-15T13:05:34;23.1;;;16;;
68224;SDS011;57497;43.322;21.932;2023-02-15T13:10:33;24.1;;;16.3;;
68224;SDS011;57497;43.322;21.932;2023-02-15T13:15:34;23.4;;;14.7;;
68224;SDS011;57497;43.322;21.932;2023-02-15T13:20:33;25.7;;;17.2;;
68224;SDS011;57497;43.322;21.932;2023-02-15T13:25:37;20.4;;;14;;
68224;SDS011;57497;43.322;21.932;2023-02-15T13:30:33;23.2;;;15.5;;
68224;SDS011;57497;43.322;21.932;2023-02-15T13:35:37;20.1;;;15.4;;
68224;SDS011;57497;43.322;21.932;2023-02-15T13:40:33;22.7;;;17.4;;
68224;SDS011;57497;43.322;21.932;2023-02-15T13:45:36;25.5;;;17.4;;
68224;SDS011;57497;43.322;21.932;2023-02-15T13:50:37;25.4;;;20.1;;
68224;SDS011;57497;43.322;21.932;2023-02-15T13:55:36;22.7;;;17;;
68224;SDS011;57497;43.322;21.932;2023-02-15T14:00:35;26.9;;;19;;
68224;SDS011;57497;43.322;21.932;2023-02-15T14:05:36;26.1;;;20.3;;
68224;SDS011;57497;43.322;21.932;2023-02-15T14:10:38;23.8;;;17.8;;
68224;SDS011;57497;43.322;21.932;2023-02-15T14:15:34;49.7;;;42.7;;
68224;SDS011;57497;43.322;21.932;2023-02-15T14:20:39;28.5;;;23.3;;
68224;SDS011;57497;43.322;21.932;2023-02-15T14:25:34;36.4;;;30.4;;
68224;SDS011;57497;43.322;21.932;2023-02-15T14:30:34;53.9;;;49.5;;
68224;SDS011;57497;43.322;21.932;2023-02-15T14:35:32;40.1;;;36.3;;
68224;SDS011;57497;43.322;21.932;2023-02-15T14:40:35;36;;;32.2;;
68224;SDS011;57497;43.322;21.932;2023-02-15T14:45:34;36.7;;;32.7;;
68224;SDS011;57497;43.322;21.932;2023-02-15T14:50:36;35.9;;;32.2;;
68224;SDS011;57497;43.322;21.932;2023-02-15T14:55:34;33.8;;;30.3;;
68224;SDS011;57497;43.322;21.932;2023-02-15T15:00:36;27.2;;;18.2;;
68224;SDS011;57497;43.322;21.932;2023-02-15T15:05:34;26.3;;;18.9;;
68224;SDS011;57497;43.322;21.932;2023-02-15T15:10:36;27.8;;;20.8;;
68224;SDS011;57497;43.322;21.932;2023-02-15T15:15:33;31.2;;;16;;
68224;SDS011;57497;43.322;21.932;2023-02-15T15:20:37;29.6;;;19.7;;
68224;SDS011;57497;43.322;21.932;2023-02-15T15:25:41;40.2;;;22;;
68224;SDS011;57497;43.322;21.932;2023-02-15T15:30:49;29.4;;;19;;
